Time;durP1;ratioP1;P1;durP2;ratioP2;P2;SDS_P1;SDS_P2;PMS_P1;PMS_P2;Temp;Humidity;BMP_temperature;BMP_pressure;BME280_temperature;BME280_humidity;BME280_pressure;Samples;Min_cycle;Max_cycle;Signal;HPM_P1;HPM_P2
2021/12/09 00:01:12;;;;;;;9.05;1.73;;;6.00;99.90;;;;;;4896263;29;20033;-84
2021/12/09 00:03:40;;;;;;;10.93;1.70;;;5.90;99.90;;;;;;4894999;29;20035;-84
2021/12/09 00:06:08;;;;;;;13.27;1.67;;;6.00;99.90;;;;;;4896229;29;20033;-86
2021/12/09 00:08:34;;;;;;;9.18;1.40;;;6.10;99.90;;;;;;4894839;29;20406;-85
2021/12/09 00:11:02;;;;;;;8.68;1.50;;;6.00;99.90;;;;;;4895943;29;20494;-86
2021/12/09 00:13:28;;;;;;;10.02;2.45;;;6.00;99.90;;;;;;4896271;29;20050;-84
2021/12/09 00:15:55;;;;;;;4.57;1.00;;;6.00;99.90;;;;;;4896076;29;20359;-85
2021/12/09 00:18:22;;;;;;;7.47;1.20;;;6.00;99.90;;;;;;4896281;29;20028;-84
2021/12/09 00:20:48;;;;;;;13.20;1.75;;;6.00;99.90;;;;;;4896192;29;20130;-84
2021/12/09 00:23:14;;;;;;;7.55;1.45;;;6.00;99.90;;;;;;4895925;29;20064;-84
2021/12/09 00:25:41;;;;;;;7.65;2.00;;;6.00;99.90;;;;;;4895668;29;20174;-84
2021/12/09 00:28:07;;;;;;;11.07;1.73;;;5.90;99.90;;;;;;4894509;29;20140;-85
2021/12/09 00:30:33;;;;;;;5.85;1.23;;;5.90;99.90;;;;;;4894584;29;20056;-84
2021/12/09 00:33:01;;;;;;;12.40;1.80;;;5.80;99.90;;;;;;4895716;29;20024;-85
2021/12/09 00:35:32;;;;;;;5.85;1.30;;;5.80;99.90;;;;;;4894734;29;20083;-84
2021/12/09 00:38:06;;;;;;;4.38;1.20;;;5.70;99.90;;;;;;4893888;29;20029;-85
2021/12/09 00:40:33;;;;;;;10.20;1.63;;;5.60;99.90;;;;;;4895353;29;20021;-84
2021/12/09 00:42:59;;;;;;;6.95;1.65;;;5.50;99.90;;;;;;4895520;29;20036;-85
2021/12/09 00:45:26;;;;;;;6.95;1.90;;;5.50;99.90;;;;;;4895544;29;20073;-85
2021/12/09 00:47:52;;;;;;;10.05;2.80;;;5.30;99.90;;;;;;4895343;29;20532;-84
2021/12/09 00:50:20;;;;;;;9.82;2.17;;;5.40;99.90;;;;;;4894209;29;20032;-83
2021/12/09 00:52:46;;;;;;;10.85;2.60;;;5.30;99.90;;;;;;4895249;29;20021;-85
2021/12/09 00:55:13;;;;;;;10.45;4.10;;;5.20;99.90;;;;;;4895142;29;20037;-85
2021/12/09 00:57:39;;;;;;;11.07;3.83;;;5.20;99.90;;;;;;4895533;29;20016;-84
2021/12/09 01:00:10;;;;;;;13.48;3.65;;;5.20;99.90;;;;;;4895340;29;20104;-84
2021/12/09 01:02:37;;;;;;;8.13;3.20;;;5.20;99.90;;;;;;4895355;29;20016;-84
2021/12/09 01:05:04;;;;;;;12.05;3.80;;;5.10;99.90;;;;;;4895342;29;20036;-84
2021/12/09 01:07:30;;;;;;;14.70;4.03;;;5.10;99.90;;;;;;4893972;29;20020;-84
2021/12/09 01:09:56;;;;;;;10.52;4.30;;;5.00;99.90;;;;;;4895307;29;20044;-83
2021/12/09 01:12:22;;;;;;;12.45;4.60;;;5.00;99.90;;;;;;4895206;29;20029;-84
2021/12/09 01:14:48;;;;;;;13.85;4.60;;;5.00;99.90;;;;;;4895164;29;20084;-84
2021/12/09 01:19:50;;;;;;;14.73;4.10;;;4.90;99.90;;;;;;5254481;23;20222;-83
2021/12/09 01:22:17;;;;;;;12.70;3.88;;;4.80;99.90;;;;;;4875558;29;20029;-84
2021/12/09 01:24:43;;;;;;;8.73;2.88;;;4.80;99.90;;;;;;4877226;29;20025;-83
2021/12/09 01:27:09;;;;;;;8.27;3.78;;;4.70;99.90;;;;;;4876924;29;20132;-84
2021/12/09 01:29:39;;;;;;;11.80;3.22;;;4.70;99.90;;;;;;4877147;29;20132;-83
2021/12/09 01:32:07;;;;;;;14.30;3.67;;;4.60;99.90;;;;;;4876611;29;20059;-84
2021/12/09 01:34:34;;;;;;;10.90;3.63;;;4.60;99.90;;;;;;4876763;29;20130;-83
2021/12/09 01:37:00;;;;;;;11.90;3.67;;;4.50;99.90;;;;;;4876810;29;20034;-83
2021/12/09 01:39:28;;;;;;;10.85;4.30;;;4.60;99.90;;;;;;4876501;29;20025;-83
2021/12/09 01:41:56;;;;;;;11.30;3.75;;;4.50;99.90;;;;;;4876641;29;20115;-84
2021/12/09 01:44:22;;;;;;;10.35;4.53;;;4.40;99.90;;;;;;4875554;29;20121;-83
2021/12/09 01:46:48;;;;;;;11.27;4.60;;;4.40;99.90;;;;;;4876537;29;20497;-84
2021/12/09 01:49:14;;;;;;;9.73;4.05;;;4.50;99.90;;;;;;4876269;29;20039;-84
2021/12/09 01:51:41;;;;;;;11.48;4.18;;;4.40;99.90;;;;;;4879426;29;20093;-83
2021/12/09 01:54:08;;;;;;;10.32;3.72;;;4.40;99.90;;;;;;4880326;29;20091;-84
2021/12/09 01:56:33;;;;;;;15.65;3.55;;;4.40;99.90;;;;;;4880319;29;20068;-83
2021/12/09 01:59:04;;;;;;;14.70;2.65;;;4.70;99.90;;;;;;4880333;29;20053;-83
2021/12/09 02:01:32;;;;;;;9.88;2.42;;;5.00;99.90;;;;;;4880418;29;20025;-82
2021/12/09 02:04:01;;;;;;;13.20;2.38;;;5.20;99.90;;;;;;4880284;29;20021;-84
2021/12/09 02:06:28;;;;;;;14.27;3.08;;;5.40;99.90;;;;;;4878715;29;20510;-84
2021/12/09 02:08:55;;;;;;;16.65;2.63;;;5.50;99.90;;;;;;4879808;29;20040;-84
2021/12/09 02:11:21;;;;;;;15.95;1.83;;;5.70;99.90;;;;;;4879985;29;20044;-83
2021/12/09 02:13:51;;;;;;;13.27;2.05;;;5.80;99.90;;;;;;4879757;29;20142;-83
2021/12/09 02:16:17;;;;;;;8.75;1.65;;;5.80;99.90;;;;;;4879949;29;20033;-83
2021/12/09 02:18:43;;;;;;;8.95;1.88;;;5.90;99.90;;;;;;4879600;29;20056;-84
2021/12/09 02:21:12;;;;;;;16.27;2.53;;;5.90;99.90;;;;;;4880172;29;20542;-83
2021/12/09 02:23:44;;;;;;;13.73;2.45;;;6.00;99.90;;;;;;4878362;29;20078;-83
2021/12/09 02:26:12;;;;;;;15.90;2.03;;;6.00;99.90;;;;;;4880035;29;20021;-83
2021/12/09 02:28:38;;;;;;;13.77;2.50;;;6.00;99.90;;;;;;4879778;29;20400;-83
2021/12/09 02:31:04;;;;;;;13.75;1.98;;;6.00;99.90;;;;;;4879748;29;20037;-83
2021/12/09 02:33:30;;;;;;;15.95;1.73;;;6.00;99.90;;;;;;4878127;29;20405;-84
2021/12/09 02:35:55;;;;;;;16.40;2.28;;;6.10;99.90;;;;;;4879680;29;20112;-83
2021/12/09 02:38:21;;;;;;;11.05;2.13;;;6.10;99.90;;;;;;4879729;29;20497;-82
2021/12/09 02:40:49;;;;;;;9.75;1.38;;;6.10;99.90;;;;;;4879584;29;20029;-83
2021/12/09 02:43:15;;;;;;;11.27;1.33;;;6.10;99.90;;;;;;4879751;29;20417;-84
2021/12/09 02:45:48;;;;;;;9.57;1.67;;;6.10;99.90;;;;;;4879794;29;20497;-84
2021/12/09 02:48:17;;;;;;;9.32;1.38;;;6.10;99.90;;;;;;4879188;29;20037;-83
2021/12/09 02:50:42;;;;;;;7.45;1.23;;;6.00;99.90;;;;;;4879339;29;20044;-84
2021/12/09 02:53:08;;;;;;;6.88;1.63;;;5.90;99.90;;;;;;4879187;29;20462;-83
2021/12/09 02:55:34;;;;;;;6.63;1.27;;;5.90;99.90;;;;;;4879372;29;20037;-84
2021/12/09 02:58:02;;;;;;;11.57;1.20;;;5.70;99.90;;;;;;4879376;29;20530;-84
2021/12/09 03:00:28;;;;;;;9.13;1.30;;;5.60;99.90;;;;;;4879341;29;20022;-83
2021/12/09 03:02:56;;;;;;;13.63;1.83;;;5.60;99.90;;;;;;4878937;29;20033;-82
2021/12/09 03:05:23;;;;;;;6.10;1.15;;;5.50;99.90;;;;;;4879319;29;20025;-83
2021/12/09 03:07:49;;;;;;;8.68;1.38;;;5.40;99.90;;;;;;4879083;29;20044;-83
2021/12/09 03:10:25;;;;;;;9.90;1.52;;;5.30;99.90;;;;;;4879002;29;20029;-83
2021/12/09 03:12:57;;;;;;;8.13;1.85;;;5.30;99.90;;;;;;4879221;29;20021;-84
2021/12/09 03:15:23;;;;;;;9.63;2.00;;;5.20;99.90;;;;;;4877858;29;20037;-83
2021/12/09 03:17:49;;;;;;;6.95;1.30;;;5.10;99.90;;;;;;4878858;29;20100;-84
2021/12/09 03:20:18;;;;;;;8.68;1.83;;;5.10;99.90;;;;;;4878993;29;20137;-83
2021/12/09 03:22:45;;;;;;;11.38;2.53;;;5.10;99.90;;;;;;4879039;29;20114;-83
2021/12/09 03:25:14;;;;;;;5.70;1.80;;;5.00;99.90;;;;;;4878865;29;20033;-83
2021/12/09 03:27:40;;;;;;;9.07;1.73;;;5.00;99.90;;;;;;4878730;29;20013;-83
2021/12/09 03:30:09;;;;;;;7.90;1.80;;;4.90;99.90;;;;;;4879023;29;20048;-83
2021/12/09 03:32:35;;;;;;;14.02;2.20;;;4.90;99.90;;;;;;4878005;29;20454;-82
2021/12/09 03:35:00;;;;;;;10.88;2.45;;;4.90;99.90;;;;;;4878903;29;20040;-83
2021/12/09 03:37:27;;;;;;;11.80;2.92;;;4.80;99.90;;;;;;4878738;29;20381;-83
2021/12/09 03:39:55;;;;;;;22.40;5.72;;;4.90;99.90;;;;;;4878718;29;20081;-83
2021/12/09 03:42:25;;;;;;;18.15;2.80;;;4.90;99.90;;;;;;4879706;29;20021;-83
2021/12/09 03:44:51;;;;;;;13.43;2.25;;;5.10;99.90;;;;;;4878724;29;20033;-83
2021/12/09 03:47:21;;;;;;;12.18;1.80;;;5.20;99.90;;;;;;4879765;29;20025;-83
2021/12/09 03:49:47;;;;;;;16.65;1.65;;;5.30;99.90;;;;;;4879952;29;20105;-83
2021/12/09 03:52:13;;;;;;;5.05;1.02;;;5.40;99.90;;;;;;4878651;29;20029;-83
2021/12/09 03:54:40;;;;;;;7.75;1.60;;;5.50;99.90;;;;;;4879738;29;20498;-82
2021/12/09 03:57:07;;;;;;;10.15;1.30;;;5.40;99.90;;;;;;4880178;29;20025;-83
2021/12/09 03:59:33;;;;;;;10.23;1.35;;;5.40;99.90;;;;;;4891507;29;20033;-83
2021/12/09 04:01:59;;;;;;;6.03;1.30;;;5.30;99.90;;;;;;4892193;29;20024;-83
2021/12/09 04:04:26;;;;;;;5.43;1.02;;;5.30;99.90;;;;;;4891690;29;20048;-83
2021/12/09 04:06:52;;;;;;;4.60;1.00;;;5.30;99.90;;;;;;4891578;29;20077;-82
2021/12/09 04:09:22;;;;;;;7.43;1.83;;;5.30;99.90;;;;;;4886918;29;20124;-82
2021/12/09 04:11:48;;;;;;;8.82;0.82;;;5.20;99.90;;;;;;4891594;29;20025;-83
2021/12/09 04:14:14;;;;;;;10.38;1.48;;;5.40;99.90;;;;;;4891180;29;20553;-83
2021/12/09 04:16:40;;;;;;;10.98;1.70;;;5.50;99.90;;;;;;4891375;29;20017;-83
2021/12/09 04:19:08;;;;;;;9.18;1.17;;;5.60;99.90;;;;;;4890782;29;20671;-83
2021/12/09 04:21:35;;;;;;;10.23;1.00;;;5.70;99.90;;;;;;4891409;29;20025;-83
2021/12/09 04:24:07;;;;;;;8.32;0.95;;;5.70;99.90;;;;;;4891148;29;20033;-84
2021/12/09 04:26:34;;;;;;;8.63;1.15;;;5.80;99.90;;;;;;4888386;29;20044;-83
2021/12/09 04:29:00;;;;;;;3.95;0.68;;;5.80;99.90;;;;;;4889492;29;20041;-82
2021/12/09 04:31:27;;;;;;;10.57;1.13;;;5.80;99.90;;;;;;4892168;29;20032;-83
2021/12/09 04:33:52;;;;;;;13.43;1.30;;;5.80;99.90;;;;;;4892470;29;20021;-84
2021/12/09 04:36:21;;;;;;;8.45;0.88;;;5.70;99.90;;;;;;4879712;29;20036;-83
2021/12/09 04:38:48;;;;;;;8.73;1.17;;;5.60;99.90;;;;;;4876406;29;20033;-83
2021/12/09 04:41:14;;;;;;;6.28;0.85;;;5.60;99.90;;;;;;4877825;29;20043;-83
2021/12/09 04:43:42;;;;;;;5.88;1.60;;;5.50;99.90;;;;;;4877605;29;20488;-83
2021/12/09 04:46:12;;;;;;;6.88;1.30;;;5.50;99.90;;;;;;4877753;29;20033;-83
2021/12/09 04:48:38;;;;;;;9.68;1.20;;;5.50;99.90;;;;;;4877204;29;20142;-83
2021/12/09 04:51:04;;;;;;;7.80;1.15;;;5.40;99.90;;;;;;4877422;29;20025;-83
2021/12/09 04:53:30;;;;;;;8.45;1.45;;;5.40;99.90;;;;;;4876219;29;20097;-83
2021/12/09 04:55:57;;;;;;;5.22;1.20;;;5.30;99.90;;;;;;4876218;29;20029;-83
2021/12/09 04:58:23;;;;;;;11.38;1.05;;;5.30;99.90;;;;;;4877300;29;20069;-82
2021/12/09 05:00:50;;;;;;;4.53;1.10;;;5.20;99.90;;;;;;4877567;29;20032;-82
2021/12/09 05:03:17;;;;;;;5.00;1.02;;;5.30;99.90;;;;;;4877146;29;20024;-83
2021/12/09 05:05:49;;;;;;;6.65;1.60;;;5.20;99.90;;;;;;4877202;29;20040;-83
2021/12/09 05:08:18;;;;;;;11.68;1.50;;;5.20;99.90;;;;;;4877082;29;20029;-83
2021/12/09 05:13:20;;;;;;;9.27;1.60;;;5.20;99.90;;;;;;4875960;29;20033;-83
2021/12/09 05:15:47;;;;;;;7.82;1.83;;;5.30;99.90;;;;;;4876046;29;20386;-83
2021/12/09 05:18:14;;;;;;;8.05;1.20;;;5.30;99.90;;;;;;4877026;29;20029;-83
2021/12/09 05:20:40;;;;;;;5.38;1.35;;;5.30;99.90;;;;;;4875686;29;20394;-83
2021/12/09 05:23:05;;;;;;;10.88;2.80;;;5.30;99.90;;;;;;4877471;29;20036;-82
2021/12/09 05:25:32;;;;;;;7.22;1.90;;;5.20;99.90;;;;;;4877010;29;20054;-83
2021/12/09 05:27:57;;;;;;;7.15;1.83;;;5.20;99.90;;;;;;4876948;29;20419;-82
2021/12/09 05:30:27;;;;;;;8.15;1.70;;;5.10;99.90;;;;;;4876866;29;20033;-83
2021/12/09 05:32:53;;;;;;;8.52;2.10;;;5.00;99.90;;;;;;4876761;29;20096;-83
2021/12/09 05:35:19;;;;;;;11.55;1.95;;;5.00;99.90;;;;;;4876843;29;20158;-83
2021/12/09 05:37:48;;;;;;;9.98;2.60;;;5.00;99.90;;;;;;4875645;29;20486;-83
2021/12/09 05:40:15;;;;;;;12.13;2.10;;;4.90;99.90;;;;;;4877169;29;20029;-83
2021/12/09 05:42:42;;;;;;;8.63;1.88;;;4.90;99.90;;;;;;4876890;29;20021;-83
2021/12/09 05:45:08;;;;;;;10.45;2.00;;;4.90;99.90;;;;;;4876832;29;20037;-82
2021/12/09 05:47:34;;;;;;;7.85;2.00;;;4.80;99.90;;;;;;4876728;29;20036;-83
2021/12/09 05:50:01;;;;;;;5.72;1.88;;;4.80;99.90;;;;;;4876459;29;20029;-82
2021/12/09 05:52:27;;;;;;;13.60;2.28;;;4.80;99.90;;;;;;4876566;29;20025;-82
2021/12/09 05:54:52;;;;;;;3.83;1.40;;;4.80;99.90;;;;;;4876645;29;20100;-83
2021/12/09 05:57:18;;;;;;;7.90;1.77;;;4.80;99.90;;;;;;4876760;29;20061;-83
2021/12/09 05:59:44;;;;;;;11.38;2.45;;;4.80;99.90;;;;;;4876531;29;20067;-83
2021/12/09 06:02:16;;;;;;;7.47;2.15;;;4.90;99.90;;;;;;4876706;29;20085;-83
2021/12/09 06:04:43;;;;;;;6.82;1.88;;;5.00;99.90;;;;;;4876834;29;20104;-85
2021/12/09 06:07:09;;;;;;;12.45;3.15;;;5.00;99.90;;;;;;4876525;29;20482;-83
2021/12/09 06:09:35;;;;;;;7.95;2.60;;;5.00;99.90;;;;;;4876475;29;20629;-83
2021/12/09 06:12:01;;;;;;;15.38;4.20;;;5.00;99.90;;;;;;4876301;29;20063;-82
2021/12/09 06:14:27;;;;;;;11.82;4.20;;;5.00;99.90;;;;;;4875088;29;20566;-83
2021/12/09 06:16:53;;;;;;;14.23;4.05;;;5.10;99.90;;;;;;4876328;29;20619;-83
2021/12/09 06:19:21;;;;;;;15.95;4.10;;;5.10;99.90;;;;;;4876218;29;20059;-82
2021/12/09 06:21:47;;;;;;;9.00;3.15;;;5.10;99.90;;;;;;4876690;29;20051;-82
2021/12/09 06:24:13;;;;;;;11.52;3.58;;;5.10;99.90;;;;;;4876376;29;20029;-83
2021/12/09 06:26:38;;;;;;;13.82;3.92;;;5.10;99.90;;;;;;4876446;29;20028;-83
2021/12/09 06:29:07;;;;;;;8.65;3.35;;;5.10;99.90;;;;;;4876274;29;20061;-83
2021/12/09 06:31:33;;;;;;;10.30;3.50;;;5.20;99.90;;;;;;4875824;29;20534;-84
2021/12/09 06:33:59;;;;;;;11.00;3.55;;;5.20;99.90;;;;;;4875984;29;20029;-82
2021/12/09 06:36:25;;;;;;;13.25;3.53;;;5.20;99.90;;;;;;4881694;29;20068;-83
2021/12/09 06:38:50;;;;;;;11.50;4.28;;;5.20;99.90;;;;;;4879892;29;20033;-83
2021/12/09 06:41:16;;;;;;;12.23;5.25;;;5.20;99.90;;;;;;4879155;29;20084;-83
2021/12/09 06:43:42;;;;;;;9.48;4.75;;;5.30;99.90;;;;;;4879444;29;20104;-83
2021/12/09 06:46:10;;;;;;;11.75;5.15;;;5.30;99.90;;;;;;4880298;29;20033;-83
2021/12/09 06:48:37;;;;;;;13.95;5.32;;;5.30;99.90;;;;;;4878614;29;20088;-82
2021/12/09 06:51:06;;;;;;;14.90;7.30;;;5.40;99.90;;;;;;4878933;29;20040;-82
2021/12/09 06:53:36;;;;;;;11.13;6.13;;;5.40;99.90;;;;;;4879248;29;20097;-83
2021/12/09 06:56:02;;;;;;;15.20;6.65;;;5.40;99.90;;;;;;4879841;29;20098;-83
2021/12/09 06:58:28;;;;;;;19.75;6.25;;;5.40;99.90;;;;;;4868430;29;20327;-83
2021/12/09 07:00:56;;;;;;;18.95;6.30;;;5.40;99.90;;;;;;4889017;29;20104;-83
2021/12/09 07:03:22;;;;;;;14.32;5.90;;;5.40;99.90;;;;;;4889805;29;20320;-83
2021/12/09 07:05:49;;;;;;;16.55;6.60;;;5.50;99.90;;;;;;4889961;29;20300;-83
2021/12/09 07:08:16;;;;;;;12.68;5.93;;;5.60;99.90;;;;;;4887710;29;20020;-83
2021/12/09 07:10:43;;;;;;;12.95;5.95;;;5.60;99.90;;;;;;4888724;29;20088;-83
2021/12/09 07:13:09;;;;;;;14.23;6.50;;;5.60;99.90;;;;;;4888058;29;20025;-83
2021/12/09 07:15:35;;;;;;;21.35;7.18;;;5.50;99.90;;;;;;4888923;29;20064;-85
2021/12/09 07:18:01;;;;;;;15.63;6.63;;;5.60;99.90;;;;;;4889459;29;20028;-83
2021/12/09 07:20:27;;;;;;;18.45;6.85;;;5.60;99.90;;;;;;4887704;29;20048;-83
2021/12/09 07:22:55;;;;;;;13.98;6.38;;;5.60;99.90;;;;;;4888041;29;20526;-87
2021/12/09 07:25:24;;;;;;;23.38;6.90;;;5.70;99.90;;;;;;4880452;29;20033;-88
2021/12/09 07:27:50;;;;;;;16.33;6.50;;;5.70;99.90;;;;;;4881236;29;20093;-87
2021/12/09 07:30:17;;;;;;;12.85;5.97;;;5.70;99.90;;;;;;4877391;29;20486;-90
2021/12/09 07:32:43;;;;;;;20.58;7.85;;;5.70;99.90;;;;;;4878969;29;20103;-88
2021/12/09 07:35:11;;;;;;;37.42;15.15;;;5.70;99.90;;;;;;4879106;29;20183;-87
2021/12/09 07:37:38;;;;;;;33.40;14.55;;;5.80;99.90;;;;;;4878745;29;20020;-87
2021/12/09 07:40:10;;;;;;;42.13;16.33;;;5.80;99.90;;;;;;4879329;29;20057;-87
2021/12/09 07:42:37;;;;;;;40.00;17.30;;;5.90;99.90;;;;;;4878499;29;20371;-87
2021/12/09 07:45:05;;;;;;;41.08;16.88;;;5.90;99.90;;;;;;4879642;29;20032;-87
2021/12/09 07:47:32;;;;;;;37.30;15.98;;;5.90;99.90;;;;;;4884389;29;20112;-87
2021/12/09 07:49:58;;;;;;;33.05;13.65;;;6.00;99.90;;;;;;4877725;29;20497;-88
2021/12/09 07:52:23;;;;;;;31.85;10.65;;;6.00;99.90;;;;;;4884659;29;20078;-87
2021/12/09 07:54:49;;;;;;;23.15;8.13;;;6.10;99.90;;;;;;4884610;29;20033;-87
2021/12/09 07:57:15;;;;;;;20.95;7.00;;;6.10;99.90;;;;;;4878928;29;20120;-89
2021/12/09 07:59:40;;;;;;;24.70;6.70;;;6.10;99.90;;;;;;4878909;29;20402;-87
2021/12/09 08:02:07;;;;;;;19.17;6.22;;;6.20;99.90;;;;;;4878312;29;20070;-88
2021/12/09 08:04:33;;;;;;;20.10;8.15;;;6.30;99.90;;;;;;4878608;29;20025;-88
2021/12/09 08:06:59;;;;;;;18.98;6.15;;;6.30;99.90;;;;;;4878819;29;20076;-85
2021/12/09 08:09:25;;;;;;;24.30;7.95;;;6.30;99.90;;;;;;4879063;29;20172;-85
2021/12/09 08:11:51;;;;;;;19.83;7.38;;;6.30;99.90;;;;;;4886762;29;20032;-86
2021/12/09 08:14:19;;;;;;;24.17;9.15;;;6.30;99.90;;;;;;4889069;29;20104;-86
2021/12/09 08:16:45;;;;;;;21.70;6.80;;;6.30;99.90;;;;;;4889019;29;20062;-86
2021/12/09 08:19:16;;;;;;;30.70;9.52;;;6.30;99.90;;;;;;4888844;29;20051;-84
2021/12/09 08:21:42;;;;;;;22.25;9.52;;;6.40;99.90;;;;;;4886267;29;20013;-86
2021/12/09 08:24:11;;;;;;;20.75;9.20;;;6.50;99.90;;;;;;4888485;29;20033;-85
2021/12/09 08:26:37;;;;;;;546.25;42.55;;;6.50;99.90;;;;;;4888392;29;20025;-85
2021/12/09 08:29:04;;;;;;;19.55;7.50;;;6.60;99.90;;;;;;4888679;29;20142;-86
2021/12/09 08:31:33;;;;;;;21.27;9.30;;;6.50;99.90;;;;;;4887070;29;20460;-85
2021/12/09 08:34:00;;;;;;;21.27;7.28;;;6.50;99.90;;;;;;4888219;29;20059;-87
2021/12/09 08:36:26;;;;;;;18.25;6.78;;;6.60;99.90;;;;;;4887228;29;20280;-87
2021/12/09 08:38:51;;;;;;;24.52;6.53;;;6.60;99.90;;;;;;4888607;29;20036;-86
2021/12/09 08:41:19;;;;;;;18.45;6.38;;;6.70;99.90;;;;;;4887376;29;20098;-85
2021/12/09 08:43:45;;;;;;;19.88;5.38;;;6.80;99.90;;;;;;4887814;29;20029;-85
2021/12/09 08:46:11;;;;;;;25.63;5.93;;;6.90;99.90;;;;;;4887784;29;20045;-85
2021/12/09 08:48:37;;;;;;;19.92;6.82;;;7.00;99.90;;;;;;4886746;29;20040;-89
2021/12/09 08:51:03;;;;;;;17.20;6.40;;;6.90;99.90;;;;;;4879356;29;20021;-85
2021/12/09 08:53:29;;;;;;;22.10;6.00;;;7.00;99.90;;;;;;4876131;29;20029;-85
2021/12/09 08:55:55;;;;;;;16.83;6.25;;;7.00;99.90;;;;;;4875465;29;20036;-85
2021/12/09 08:58:23;;;;;;;23.20;6.32;;;7.10;99.90;;;;;;4875175;29;20443;-86
2021/12/09 09:00:52;;;;;;;16.35;5.28;;;7.10;99.90;;;;;;4873733;29;20033;-86
2021/12/09 09:03:17;;;;;;;24.25;5.57;;;7.10;99.90;;;;;;4876268;29;20076;-83
2021/12/09 09:05:44;;;;;;;25.73;5.03;;;7.20;99.90;;;;;;4876319;29;20060;-85
2021/12/09 09:08:11;;;;;;;19.65;4.55;;;7.20;99.90;;;;;;4877587;29;20289;-86
2021/12/09 09:10:41;;;;;;;17.00;4.35;;;7.30;99.90;;;;;;4877251;29;20113;-86
2021/12/09 09:13:06;;;;;;;15.30;4.55;;;7.20;99.90;;;;;;4877244;29;20036;-87
2021/12/09 09:15:33;;;;;;;17.95;4.28;;;7.30;99.90;;;;;;4876952;29;20032;-87
2021/12/09 09:18:00;;;;;;;20.88;4.80;;;7.40;99.90;;;;;;4870099;29;20032;-88
2021/12/09 09:20:29;;;;;;;24.50;5.20;;;7.50;99.90;;;;;;4881809;29;20053;-87
2021/12/09 09:22:55;;;;;;;14.93;4.32;;;7.60;99.90;;;;;;4876605;29;20029;-86
2021/12/09 09:25:28;;;;;;;20.95;4.82;;;7.70;99.90;;;;;;4876949;29;20081;-85
2021/12/09 09:27:54;;;;;;;26.10;4.90;;;7.80;99.90;;;;;;4875536;29;20029;-79
2021/12/09 09:30:20;;;;;;;17.85;4.72;;;7.90;99.90;;;;;;4877216;29;20029;-80
2021/12/09 09:32:48;;;;;;;30.77;7.00;;;8.00;99.90;;;;;;4876768;29;20385;-80
2021/12/09 09:35:15;;;;;;;21.52;5.53;;;7.90;99.90;;;;;;4877252;29;20056;-89
2021/12/09 09:37:40;;;;;;;23.83;5.20;;;8.00;99.90;;;;;;4875925;29;20548;-89
2021/12/09 09:40:10;;;;;;;34.05;5.45;;;8.10;99.90;;;;;;4875950;29;20029;-88
2021/12/09 09:45:10;;;;;;;21.80;5.53;;;8.30;99.90;;;;;;4877126;29;20073;-85
2021/12/09 09:47:36;;;;;;;22.83;4.50;;;8.50;99.90;;;;;;4877225;29;20498;-86
2021/12/09 09:50:05;;;;;;;26.52;5.28;;;8.50;99.90;;;;;;4875710;29;20078;-87
2021/12/09 09:52:31;;;;;;;24.58;5.05;;;8.50;99.90;;;;;;4876988;29;20048;-84
2021/12/09 09:54:59;;;;;;;26.35;6.32;;;8.60;99.90;;;;;;4877005;29;20494;-86
2021/12/09 09:57:25;;;;;;;21.95;5.57;;;8.60;99.90;;;;;;4876929;29;20037;-84
2021/12/09 09:59:52;;;;;;;26.83;5.40;;;8.70;99.90;;;;;;4876974;29;20040;-86
2021/12/09 10:02:19;;;;;;;27.67;5.50;;;8.80;99.90;;;;;;4877329;29;20108;-85
2021/12/09 10:04:57;;;;;;;27.77;5.88;;;8.80;99.90;;;;;;4875980;29;20025;-85
2021/12/09 10:07:24;;;;;;;25.85;5.03;;;8.80;99.90;;;;;;4877033;29;20036;-84
2021/12/09 10:09:52;;;;;;;24.95;5.40;;;8.90;99.90;;;;;;4876869;29;20057;-83
2021/12/09 10:12:18;;;;;;;28.75;6.75;;;8.90;99.90;;;;;;4879254;29;20147;-82
2021/12/09 10:14:50;;;;;;;29.15;5.72;;;8.90;99.90;;;;;;4880804;29;20251;-83
2021/12/09 10:17:18;;;;;;;20.33;4.82;;;8.90;99.90;;;;;;4880528;29;20672;-83
2021/12/09 10:19:47;;;;;;;20.60;4.78;;;8.90;99.90;;;;;;4880403;29;20067;-84
2021/12/09 10:22:25;;;;;;;28.17;5.07;;;8.90;99.90;;;;;;4880235;29;20025;-83
2021/12/09 10:24:56;;;;;;;35.97;5.55;;;8.80;99.90;;;;;;4880585;29;20033;-87
2021/12/09 10:27:33;;;;;;;19.77;4.80;;;8.90;99.90;;;;;;4880518;29;20025;-80
2021/12/09 10:30:16;;;;;;;25.38;5.13;;;8.90;99.90;;;;;;4879207;29;20072;-81
2021/12/09 10:32:44;;;;;;;30.15;4.65;;;8.80;99.90;;;;;;4879701;29;20029;-81
2021/12/09 10:35:20;;;;;;;27.70;5.20;;;8.70;99.90;;;;;;4880315;29;20394;-82
2021/12/09 10:37:50;;;;;;;23.85;4.65;;;8.80;99.90;;;;;;4883434;29;20025;-81
2021/12/09 10:40:22;;;;;;;32.10;5.40;;;8.80;99.90;;;;;;4878524;29;20069;-80
2021/12/09 10:42:54;;;;;;;37.63;5.13;;;8.90;99.90;;;;;;4879763;29;20021;-79
2021/12/09 10:45:29;;;;;;;26.98;4.82;;;8.90;99.90;;;;;;4880767;29;20084;-79
2021/12/09 10:48:26;;;;;;;19.55;4.45;;;8.90;99.90;;;;;;4879081;29;20029;-79
2021/12/09 10:55:58;;;;;;;26.08;4.97;;;9.10;99.90;;;;;;4878166;29;20037;-80
2021/12/09 10:58:31;;;;;;;18.27;4.82;;;9.20;99.90;;;;;;4877866;29;20093;-80
2021/12/09 11:01:04;;;;;;;26.17;5.47;;;9.20;99.90;;;;;;4877951;29;20059;-80
2021/12/09 11:03:53;;;;;;;22.52;4.60;;;9.20;99.90;;;;;;4879366;29;20025;-80
2021/12/09 11:06:37;;;;;;;24.17;4.47;;;9.30;99.90;;;;;;4878190;29;20584;-79
2021/12/09 11:09:08;;;;;;;24.30;5.00;;;9.10;99.90;;;;;;4879637;29;20081;-80
2021/12/09 11:11:42;;;;;;;27.70;5.38;;;9.10;99.90;;;;;;4879460;29;20390;-80
2021/12/09 11:14:13;;;;;;;31.65;5.72;;;9.10;99.90;;;;;;4878270;29;20363;-79
2021/12/09 11:16:44;;;;;;;28.02;4.95;;;9.10;99.90;;;;;;4879282;29;20037;-79
2021/12/09 11:19:23;;;;;;;25.08;4.68;;;9.10;99.90;;;;;;4878529;29;20100;-79
2021/12/09 11:21:57;;;;;;;22.40;4.60;;;9.10;99.90;;;;;;4878937;29;20525;-80
2021/12/09 11:24:27;;;;;;;18.25;4.90;;;9.10;99.90;;;;;;4879042;29;20128;-80
2021/12/09 11:26:57;;;;;;;23.83;5.53;;;9.20;99.90;;;;;;4877360;29;20037;-80
2021/12/09 11:29:24;;;;;;;29.08;4.80;;;9.20;99.90;;;;;;4878753;29;20502;-79
2021/12/09 11:32:25;;;;;;;28.48;6.45;;;9.20;99.90;;;;;;4878892;29;20025;-79
2021/12/09 11:35:02;;;;;;;22.02;4.68;;;9.30;99.90;;;;;;4878914;29;20392;-80
2021/12/09 11:40:12;;;;;;;27.88;4.38;;;9.50;99.90;;;;;;4878897;29;20037;-80
2021/12/09 11:45:07;;;;;;;24.23;4.45;;;9.50;99.90;;;;;;4878555;29;20040;-80
2021/12/09 11:47:34;;;;;;;25.58;4.05;;;9.60;99.90;;;;;;4878372;29;20036;-80
2021/12/09 11:50:00;;;;;;;27.65;6.30;;;9.60;99.90;;;;;;4877379;29;20037;-80
2021/12/09 11:52:25;;;;;;;20.65;5.45;;;9.60;99.90;;;;;;4877412;29;20553;-80
2021/12/09 11:55:00;;;;;;;19.20;4.28;;;9.70;99.90;;;;;;4877378;29;20100;-80
2021/12/09 11:57:35;;;;;;;24.98;3.97;;;9.70;99.90;;;;;;4878160;29;20039;-80
2021/12/09 12:11:57;;;;;;;21.98;8.75;;;9.80;99.90;;;;;;4878276;29;20040;-80
2021/12/09 12:14:41;;;;;;;16.10;4.95;;;9.90;99.90;;;;;;4876790;29;20481;-80
2021/12/09 12:17:15;;;;;;;18.70;2.33;;;10.00;99.90;;;;;;4877903;29;20029;-80
2021/12/09 12:23:16;;;;;;;17.60;4.32;;;10.00;99.90;;;;;;4866091;29;20033;-80
2021/12/09 12:33:34;;;;;;;18.15;3.78;;;10.30;99.90;;;;;;4877757;29;20021;-80
2021/12/09 12:39:07;;;;;;;22.02;3.72;;;10.10;99.90;;;;;;4877978;29;20426;-80
2021/12/09 12:41:33;;;;;;;20.15;3.72;;;10.00;99.90;;;;;;4877435;29;20036;-80
2021/12/09 12:44:06;;;;;;;22.30;4.75;;;10.00;99.90;;;;;;4877572;29;20116;-80
2021/12/09 12:51:54;;;;;;;16.92;2.28;;;10.10;99.90;;;;;;4877569;29;20534;-79
2021/12/09 12:54:58;;;;;;;15.20;1.98;;;10.10;99.90;;;;;;4877476;29;20033;-79
2021/12/09 12:57:38;;;;;;;20.15;2.88;;;10.10;99.90;;;;;;4873819;29;20041;-79
2021/12/09 13:00:10;;;;;;;15.30;2.78;;;10.10;99.90;;;;;;4877364;29;20036;-79
2021/12/09 13:03:15;;;;;;;15.18;2.13;;;9.90;99.90;;;;;;4877199;29;20036;-79
2021/12/09 13:06:04;;;;;;;11.07;2.03;;;9.90;99.90;;;;;;4877404;29;20063;-80
2021/12/09 13:08:55;;;;;;;13.77;2.10;;;9.80;99.90;;;;;;4877049;29;20048;-79
2021/12/09 13:11:51;;;;;;;11.77;1.75;;;9.80;99.90;;;;;;4877296;29;20049;-79
2021/12/09 13:14:22;;;;;;;17.88;2.47;;;9.70;99.90;;;;;;4877411;29;20049;-79
2021/12/09 13:17:06;;;;;;;13.70;2.00;;;9.60;99.90;;;;;;4877096;29;20080;-79
2021/12/09 13:19:49;;;;;;;14.50;1.93;;;9.60;99.90;;;;;;4877049;29;20081;-79
2021/12/09 13:22:21;;;;;;;22.25;2.70;;;9.50;99.90;;;;;;4877124;29;20681;-79
2021/12/09 13:33:27;;;;;;;22.42;3.10;;;9.50;99.90;;;;;;4875687;29;20394;-79
2021/12/09 13:47:14;;;;;;;32.92;3.78;;;9.40;99.90;;;;;;4875576;29;20565;-81
2021/12/09 13:49:49;;;;;;;22.55;3.08;;;9.30;99.90;;;;;;4877215;29;20041;-81
2021/12/09 13:55:29;;;;;;;23.80;2.88;;;9.30;99.90;;;;;;4844506;29;20100;-81
2021/12/09 13:58:03;;;;;;;17.90;2.22;;;9.30;99.90;;;;;;4877219;29;20025;-81
2021/12/09 14:00:40;;;;;;;20.00;3.38;;;9.20;99.90;;;;;;4877357;29;20081;-81
2021/12/09 14:03:09;;;;;;;21.20;3.17;;;9.30;99.90;;;;;;4877430;29;20093;-80
2021/12/09 14:05:49;;;;;;;24.50;3.28;;;9.20;99.90;;;;;;4877669;29;20130;-78
2021/12/09 14:08:24;;;;;;;22.00;3.90;;;9.20;99.90;;;;;;4880378;29;20518;-79